sensor_id;sensor_type;location;lat;lon;timestamp;temperature;humidity
11573;DHT22;5842;52.426;4.886;2023-01-28T07:39:16;1.60;99.90
11573;DHT22;5842;52.426;4.886;2023-01-28T07:41:43;1.60;99.90
11573;DHT22;5842;52.426;4.886;2023-01-28T07:44:12;1.50;99.90
11573;DHT22;5842;52.426;4.886;2023-01-28T07:46:39;1.50;99.90
11573;DHT22;5842;52.426;4.886;2023-01-28T07:49:06;1.50;99.90
11573;DHT22;5842;52.426;4.886;2023-01-28T07:51:34;1.50;99.90
11573;DHT22;5842;52.426;4.886;2023-01-28T07:54:03;1.50;99.90
11573;DHT22;5842;52.426;4.886;2023-01-28T07:56:32;1.40;99.90
11573;DHT22;5842;52.426;4.886;2023-01-28T07:58:59;1.30;99.90
11573;DHT22;5842;52.426;4.886;2023-01-28T08:01:34;1.30;99.90
11573;DHT22;5842;52.426;4.886;2023-01-28T08:04:15;1.20;99.90
11573;DHT22;5842;52.426;4.886;2023-01-28T08:06:42;1.10;99.90
11573;DHT22;5842;52.426;4.886;2023-01-28T08:09:11;1.00;99.90
11573;DHT22;5842;52.426;4.886;2023-01-28T08:18:25;1.00;99.90
11573;DHT22;5842;52.426;4.886;2023-01-28T08:20:54;1.00;99.90
11573;DHT22;5842;52.426;4.886;2023-01-28T08:23:22;1.20;99.90
11573;DHT22;5842;52.426;4.886;2023-01-28T08:25:52;1.30;99.90
11573;DHT22;5842;52.426;4.886;2023-01-28T08:28:20;1.30;99.90
11573;DHT22;5842;52.426;4.886;2023-01-28T08:30:48;1.30;99.90
11573;DHT22;5842;52.426;4.886;2023-01-28T08:33:16;1.30;99.90
11573;DHT22;5842;52.426;4.886;2023-01-28T08:35:46;1.30;99.90
11573;DHT22;5842;52.426;4.886;2023-01-28T08:44:52;2.30;99.90
11573;DHT22;5842;52.426;4.886;2023-01-28T08:47:19;3.30;99.90
11573;DHT22;5842;52.426;4.886;2023-01-28T08:49:46;4.60;99.90
11573;DHT22;5842;52.426;4.886;2023-01-28T08:52:15;5.40;99.90
11573;DHT22;5842;52.426;4.886;2023-01-28T08:54:42;5.30;99.90
11573;DHT22;5842;52.426;4.886;2023-01-28T08:57:10;5.40;99.90
11573;DHT22;5842;52.426;4.886;2023-01-28T08:59:38;5.30;99.90
11573;DHT22;5842;52.426;4.886;2023-01-28T09:02:12;4.90;99.90
11573;DHT22;5842;52.426;4.886;2023-01-28T09:04:40;4.60;99.90
11573;DHT22;5842;52.426;4.886;2023-01-28T09:07:08;5.50;99.90
11573;DHT22;5842;52.426;4.886;2023-01-28T09:09:50;6.90;99.90
11573;DHT22;5842;52.426;4.886;2023-01-28T09:18:44;10.30;99.90
11573;DHT22;5842;52.426;4.886;2023-01-28T09:28:02;9.30;99.90
11573;DHT22;5842;52.426;4.886;2023-01-28T09:30:44;8.20;99.90
11573;DHT22;5842;52.426;4.886;2023-01-28T09:33:11;7.30;99.90
11573;DHT22;5842;52.426;4.886;2023-01-28T09:35:39;6.50;99.90
11573;DHT22;5842;52.426;4.886;2023-01-28T09:38:06;6.00;99.90
11573;DHT22;5842;52.426;4.886;2023-01-28T09:40:36;5.60;99.90
11573;DHT22;5842;52.426;4.886;2023-01-28T09:43:36;5.20;99.90
11573;DHT22;5842;52.426;4.886;2023-01-28T09:46:10;5.00;99.90
11573;DHT22;5842;52.426;4.886;2023-01-28T09:48:56;4.70;99.90
11573;DHT22;5842;52.426;4.886;2023-01-28T09:55:12;4.60;99.90
11573;DHT22;5842;52.426;4.886;2023-01-28T09:57:53;4.60;99.90
11573;DHT22;5842;52.426;4.886;2023-01-28T10:00:49;4.70;99.90
11573;DHT22;5842;52.426;4.886;2023-01-28T10:03:46;4.70;99.90
11573;DHT22;5842;52.426;4.886;2023-01-28T10:06:33;4.80;99.90
11573;DHT22;5842;52.426;4.886;2023-01-28T10:09:20;4.80;99.90
11573;DHT22;5842;52.426;4.886;2023-01-28T10:12:04;5.00;99.90
11573;DHT22;5842;52.426;4.886;2023-01-28T10:14:48;5.10;99.90
11573;DHT22;5842;52.426;4.886;2023-01-28T10:17:27;5.30;99.90
11573;DHT22;5842;52.426;4.886;2023-01-28T10:20:02;5.60;99.90
11573;DHT22;5842;52.426;4.886;2023-01-28T10:22:35;6.10;99.90
11573;DHT22;5842;52.426;4.886;2023-01-28T10:25:06;6.20;99.90
11573;DHT22;5842;52.426;4.886;2023-01-28T10:27:42;6.30;99.90
11573;DHT22;5842;52.426;4.886;2023-01-28T10:30:17;6.30;99.90
11573;DHT22;5842;52.426;4.886;2023-01-28T10:32:50;6.50;99.90
11573;DHT22;5842;52.426;4.886;2023-01-28T10:35:20;6.80;99.90
11573;DHT22;5842;52.426;4.886;2023-01-28T10:37:47;6.90;99.90
11573;DHT22;5842;52.426;4.886;2023-01-28T10:40:16;6.90;99.90
11573;DHT22;5842;52.426;4.886;2023-01-28T10:42:46;6.90;99.90
11573;DHT22;5842;52.426;4.886;2023-01-28T10:45:19;7.00;99.90
11573;DHT22;5842;52.426;4.886;2023-01-28T10:58:04;7.00;99.90
11573;DHT22;5842;52.426;4.886;2023-01-28T11:00:40;7.00;99.90
11573;DHT22;5842;52.426;4.886;2023-01-28T11:03:17;7.00;99.90
11573;DHT22;5842;52.426;4.886;2023-01-28T11:05:50;7.10;99.90
11573;DHT22;5842;52.426;4.886;2023-01-28T11:08:18;7.20;99.90
11573;DHT22;5842;52.426;4.886;2023-01-28T11:10:48;7.20;99.90
11573;DHT22;5842;52.426;4.886;2023-01-28T11:13:19;7.30;99.90
11573;DHT22;5842;52.426;4.886;2023-01-28T11:15:47;7.30;99.90
11573;DHT22;5842;52.426;4.886;2023-01-28T11:18:18;7.40;99.90
11573;DHT22;5842;52.426;4.886;2023-01-28T11:20:51;7.40;99.90
11573;DHT22;5842;52.426;4.886;2023-01-28T11:23:21;7.50;99.90
11573;DHT22;5842;52.426;4.886;2023-01-28T11:25:59;7.50;99.90
11573;DHT22;5842;52.426;4.886;2023-01-28T11:28:41;7.40;99.90
11573;DHT22;5842;52.426;4.886;2023-01-28T11:31:18;7.30;99.90
11573;DHT22;5842;52.426;4.886;2023-01-28T11:33:57;7.30;99.90
11573;DHT22;5842;52.426;4.886;2023-01-28T11:40:48;7.20;99.90
11573;DHT22;5842;52.426;4.886;2023-01-28T11:43:31;7.30;99.90
11573;DHT22;5842;52.426;4.886;2023-01-28T11:46:31;7.10;99.90
11573;DHT22;5842;52.426;4.886;2023-01-28T11:49:33;7.20;99.90
11573;DHT22;5842;52.426;4.886;2023-01-28T11:55:53;7.40;99.90
11573;DHT22;5842;52.426;4.886;2023-01-28T12:46:17;7.40;99.90
11573;DHT22;5842;52.426;4.886;2023-01-28T12:48:52;7.40;99.90
11573;DHT22;5842;52.426;4.886;2023-01-28T12:51:22;7.30;99.90
11573;DHT22;5842;52.426;4.886;2023-01-28T12:53:55;7.40;99.90
11573;DHT22;5842;52.426;4.886;2023-01-28T12:56:27;7.50;99.90
11573;DHT22;5842;52.426;4.886;2023-01-28T12:58:59;7.60;99.90
11573;DHT22;5842;52.426;4.886;2023-01-28T13:01:34;7.60;99.90
11573;DHT22;5842;52.426;4.886;2023-01-28T13:04:05;7.60;99.90
11573;DHT22;5842;52.426;4.886;2023-01-28T13:06:39;7.50;99.90
11573;DHT22;5842;52.426;4.886;2023-01-28T13:09:13;7.50;99.90
11573;DHT22;5842;52.426;4.886;2023-01-28T13:11:43;7.30;99.90
11573;DHT22;5842;52.426;4.886;2023-01-28T13:25:11;7.80;99.90
11573;DHT22;5842;52.426;4.886;2023-01-28T13:31:09;8.20;99.90
11573;DHT22;5842;52.426;4.886;2023-01-28T13:33:48;8.10;99.90
11573;DHT22;5842;52.426;4.886;2023-01-28T13:50:40;7.30;99.90
11573;DHT22;5842;52.426;4.886;2023-01-28T15:10:23;6.10;99.90
11573;DHT22;5842;52.426;4.886;2023-01-28T19:03:09;4.00;99.90
11573;DHT22;5842;52.426;4.886;2023-01-28T19:05:50;4.00;99.90
11573;DHT22;5842;52.426;4.886;2023-01-28T19:08:31;3.90;99.90
11573;DHT22;5842;52.426;4.886;2023-01-28T19:21:23;3.90;99.90
11573;DHT22;5842;52.426;4.886;2023-01-28T19:27:55;4.00;99.90
11573;DHT22;5842;52.426;4.886;2023-01-28T19:41:18;4.00;99.90
11573;DHT22;5842;52.426;4.886;2023-01-28T20:03:36;4.10;99.90
11573;DHT22;5842;52.426;4.886;2023-01-28T20:06:27;4.10;99.90
11573;DHT22;5842;52.426;4.886;2023-01-28T20:09:21;4.10;99.90
11573;DHT22;5842;52.426;4.886;2023-01-28T20:15:08;4.10;99.90
11573;DHT22;5842;52.426;4.886;2023-01-28T20:21:24;4.10;99.90
11573;DHT22;5842;52.426;4.886;2023-01-28T20:30:40;4.10;99.90
11573;DHT22;5842;52.426;4.886;2023-01-28T20:33:08;4.10;99.90
11573;DHT22;5842;52.426;4.886;2023-01-28T20:35:35;4.10;99.90
11573;DHT22;5842;52.426;4.886;2023-01-28T20:38:05;4.10;99.90
11573;DHT22;5842;52.426;4.886;2023-01-28T20:40:32;4.10;99.90
11573;DHT22;5842;52.426;4.886;2023-01-28T20:42:59;4.10;99.90
11573;DHT22;5842;52.426;4.886;2023-01-28T20:45:30;4.10;99.90
11573;DHT22;5842;52.426;4.886;2023-01-28T20:47:57;4.10;99.90
11573;DHT22;5842;52.426;4.886;2023-01-28T20:50:25;4.10;99.90
11573;DHT22;5842;52.426;4.886;2023-01-28T20:52:52;4.10;99.90
11573;DHT22;5842;52.426;4.886;2023-01-28T20:55:21;4.10;99.90
11573;DHT22;5842;52.426;4.886;2023-01-28T20:57:57;4.20;99.90
11573;DHT22;5842;52.426;4.886;2023-01-28T21:00:26;4.10;99.90
11573;DHT22;5842;52.426;4.886;2023-01-28T21:03:14;4.20;99.90
11573;DHT22;5842;52.426;4.886;2023-01-28T21:06:05;4.10;99.90
11573;DHT22;5842;52.426;4.886;2023-01-28T21:12:17;4.10;99.90
11573;DHT22;5842;52.426;4.886;2023-01-28T21:25:28;4.20;99.90
11573;DHT22;5842;52.426;4.886;2023-01-28T21:46:07;4.20;99.90
11573;DHT22;5842;52.426;4.886;2023-01-28T21:48:29;4.20;99.90
11573;DHT22;5842;52.426;4.886;2023-01-28T22:14:31;4.20;99.90
11573;DHT22;5842;52.426;4.886;2023-01-28T22:18:02;4.10;99.90
11573;DHT22;5842;52.426;4.886;2023-01-28T22:20:19;4.10;99.90
11573;DHT22;5842;52.426;4.886;2023-01-28T22:22:46;4.10;99.90
11573;DHT22;5842;52.426;4.886;2023-01-28T22:25:17;4.20;99.90
11573;DHT22;5842;52.426;4.886;2023-01-28T22:27:45;4.20;99.90
11573;DHT22;5842;52.426;4.886;2023-01-28T22:30:15;4.20;99.90
11573;DHT22;5842;52.426;4.886;2023-01-28T23:33:50;4.20;99.90
